sensor_id;sensor_type;location;lat;lon;timestamp;P1;durP1;ratioP1;P2;durP2;ratioP2
15929;SDS011;8064;51.142;4.780;2023-04-08T00:01:52;12.50;;;6.03;;
15929;SDS011;8064;51.142;4.780;2023-04-08T00:04:18;13.67;;;6.23;;
15929;SDS011;8064;51.142;4.780;2023-04-08T00:06:44;14.47;;;6.07;;
15929;SDS011;8064;51.142;4.780;2023-04-08T00:09:10;13.07;;;6.03;;
15929;SDS011;8064;51.142;4.780;2023-04-08T00:11:36;9.03;;;5.70;;
15929;SDS011;8064;51.142;4.780;2023-04-08T00:14:02;15.03;;;5.80;;
15929;SDS011;8064;51.142;4.780;2023-04-08T00:16:28;11.17;;;6.07;;
15929;SDS011;8064;51.142;4.780;2023-04-08T00:18:54;9.73;;;5.93;;
15929;SDS011;8064;51.142;4.780;2023-04-08T00:21:20;13.37;;;6.30;;
15929;SDS011;8064;51.142;4.780;2023-04-08T00:23:47;11.20;;;5.73;;
15929;SDS011;8064;51.142;4.780;2023-04-08T00:26:13;11.93;;;5.73;;
15929;SDS011;8064;51.142;4.780;2023-04-08T00:28:39;9.40;;;5.80;;
15929;SDS011;8064;51.142;4.780;2023-04-08T00:31:06;15.20;;;6.80;;
15929;SDS011;8064;51.142;4.780;2023-04-08T00:33:33;13.00;;;5.70;;
15929;SDS011;8064;51.142;4.780;2023-04-08T00:35:58;16.30;;;7.57;;
15929;SDS011;8064;51.142;4.780;2023-04-08T00:38:24;12.03;;;6.40;;
15929;SDS011;8064;51.142;4.780;2023-04-08T00:40:50;7.77;;;5.80;;
15929;SDS011;8064;51.142;4.780;2023-04-08T00:43:16;12.20;;;6.70;;
15929;SDS011;8064;51.142;4.780;2023-04-08T00:45:45;11.53;;;7.43;;
15929;SDS011;8064;51.142;4.780;2023-04-08T00:48:11;13.93;;;6.33;;
15929;SDS011;8064;51.142;4.780;2023-04-08T00:50:37;9.93;;;6.10;;
15929;SDS011;8064;51.142;4.780;2023-04-08T00:53:03;12.70;;;6.30;;
15929;SDS011;8064;51.142;4.780;2023-04-08T00:55:29;13.53;;;6.60;;
15929;SDS011;8064;51.142;4.780;2023-04-08T00:57:55;13.97;;;6.87;;
15929;SDS011;8064;51.142;4.780;2023-04-08T01:00:21;12.97;;;7.07;;
15929;SDS011;8064;51.142;4.780;2023-04-08T01:03:01;12.77;;;6.60;;
15929;SDS011;8064;51.142;4.780;2023-04-08T01:05:50;12.43;;;6.77;;
15929;SDS011;8064;51.142;4.780;2023-04-08T01:08:37;11.40;;;6.07;;
15929;SDS011;8064;51.142;4.780;2023-04-08T01:11:06;13.70;;;7.37;;
15929;SDS011;8064;51.142;4.780;2023-04-08T01:13:36;14.50;;;6.67;;
15929;SDS011;8064;51.142;4.780;2023-04-08T01:16:08;16.87;;;6.97;;
15929;SDS011;8064;51.142;4.780;2023-04-08T01:18:36;17.60;;;6.57;;
15929;SDS011;8064;51.142;4.780;2023-04-08T01:21:04;13.00;;;6.97;;
15929;SDS011;8064;51.142;4.780;2023-04-08T01:23:32;15.67;;;6.80;;
15929;SDS011;8064;51.142;4.780;2023-04-08T01:26:08;14.13;;;6.57;;
15929;SDS011;8064;51.142;4.780;2023-04-08T01:28:36;13.07;;;6.47;;
15929;SDS011;8064;51.142;4.780;2023-04-08T01:31:03;11.77;;;6.83;;
15929;SDS011;8064;51.142;4.780;2023-04-08T01:33:29;10.23;;;6.20;;
15929;SDS011;8064;51.142;4.780;2023-04-08T01:35:56;13.93;;;6.97;;
15929;SDS011;8064;51.142;4.780;2023-04-08T01:38:24;9.97;;;6.37;;
15929;SDS011;8064;51.142;4.780;2023-04-08T01:40:51;12.67;;;6.43;;
15929;SDS011;8064;51.142;4.780;2023-04-08T01:43:19;14.07;;;6.80;;
15929;SDS011;8064;51.142;4.780;2023-04-08T01:45:46;15.33;;;6.03;;
15929;SDS011;8064;51.142;4.780;2023-04-08T01:48:13;14.23;;;6.70;;
15929;SDS011;8064;51.142;4.780;2023-04-08T01:50:41;13.73;;;7.07;;
15929;SDS011;8064;51.142;4.780;2023-04-08T01:53:09;11.27;;;7.17;;
15929;SDS011;8064;51.142;4.780;2023-04-08T01:55:36;10.80;;;6.30;;
15929;SDS011;8064;51.142;4.780;2023-04-08T01:58:05;14.33;;;7.37;;
15929;SDS011;8064;51.142;4.780;2023-04-08T02:00:33;11.00;;;6.30;;
15929;SDS011;8064;51.142;4.780;2023-04-08T02:03:00;12.03;;;6.37;;
15929;SDS011;8064;51.142;4.780;2023-04-08T02:05:29;14.77;;;6.87;;
15929;SDS011;8064;51.142;4.780;2023-04-08T02:07:55;9.77;;;6.90;;
15929;SDS011;8064;51.142;4.780;2023-04-08T02:10:21;8.80;;;5.97;;
15929;SDS011;8064;51.142;4.780;2023-04-08T02:12:46;10.70;;;6.50;;
15929;SDS011;8064;51.142;4.780;2023-04-08T02:15:12;11.47;;;7.13;;
15929;SDS011;8064;51.142;4.780;2023-04-08T02:17:54;14.90;;;6.83;;
15929;SDS011;8064;51.142;4.780;2023-04-08T02:20:26;21.27;;;7.43;;
15929;SDS011;8064;51.142;4.780;2023-04-08T02:23:00;15.83;;;7.50;;
15929;SDS011;8064;51.142;4.780;2023-04-08T02:25:41;13.80;;;7.37;;
15929;SDS011;8064;51.142;4.780;2023-04-08T02:28:09;15.53;;;7.73;;
15929;SDS011;8064;51.142;4.780;2023-04-08T02:30:36;12.30;;;7.47;;
15929;SDS011;8064;51.142;4.780;2023-04-08T02:33:07;16.90;;;7.33;;
15929;SDS011;8064;51.142;4.780;2023-04-08T02:35:34;11.77;;;7.27;;
15929;SDS011;8064;51.142;4.780;2023-04-08T02:38:00;13.77;;;8.00;;
15929;SDS011;8064;51.142;4.780;2023-04-08T02:42:54;16.20;;;7.67;;
15929;SDS011;8064;51.142;4.780;2023-04-08T02:45:20;12.30;;;7.30;;
15929;SDS011;8064;51.142;4.780;2023-04-08T02:47:47;17.13;;;8.37;;
15929;SDS011;8064;51.142;4.780;2023-04-08T02:50:12;13.60;;;7.70;;
15929;SDS011;8064;51.142;4.780;2023-04-08T02:52:38;15.87;;;7.37;;
15929;SDS011;8064;51.142;4.780;2023-04-08T02:55:05;12.87;;;6.80;;
15929;SDS011;8064;51.142;4.780;2023-04-08T02:57:33;15.27;;;7.63;;
15929;SDS011;8064;51.142;4.780;2023-04-08T03:00:01;16.20;;;7.00;;
15929;SDS011;8064;51.142;4.780;2023-04-08T03:02:28;14.43;;;7.43;;
15929;SDS011;8064;51.142;4.780;2023-04-08T03:04:54;15.90;;;7.30;;
15929;SDS011;8064;51.142;4.780;2023-04-08T03:07:20;10.03;;;7.43;;
15929;SDS011;8064;51.142;4.780;2023-04-08T03:09:46;12.33;;;7.23;;
15929;SDS011;8064;51.142;4.780;2023-04-08T03:12:12;14.57;;;7.37;;
15929;SDS011;8064;51.142;4.780;2023-04-08T03:14:37;15.03;;;7.90;;
15929;SDS011;8064;51.142;4.780;2023-04-08T03:17:03;11.10;;;7.43;;
15929;SDS011;8064;51.142;4.780;2023-04-08T03:19:29;14.83;;;7.83;;
15929;SDS011;8064;51.142;4.780;2023-04-08T03:21:55;14.87;;;7.87;;
15929;SDS011;8064;51.142;4.780;2023-04-08T03:24:20;14.30;;;7.67;;
15929;SDS011;8064;51.142;4.780;2023-04-08T03:26:46;15.80;;;7.30;;
15929;SDS011;8064;51.142;4.780;2023-04-08T03:29:12;13.57;;;7.73;;
15929;SDS011;8064;51.142;4.780;2023-04-08T03:31:37;14.43;;;7.27;;
15929;SDS011;8064;51.142;4.780;2023-04-08T03:34:03;16.27;;;7.37;;
15929;SDS011;8064;51.142;4.780;2023-04-08T03:36:29;13.13;;;7.00;;
15929;SDS011;8064;51.142;4.780;2023-04-08T03:38:55;14.07;;;7.13;;
15929;SDS011;8064;51.142;4.780;2023-04-08T03:41:20;12.87;;;7.30;;
15929;SDS011;8064;51.142;4.780;2023-04-08T03:43:46;13.93;;;7.87;;
15929;SDS011;8064;51.142;4.780;2023-04-08T03:46:12;13.50;;;7.07;;
15929;SDS011;8064;51.142;4.780;2023-04-08T03:48:38;13.57;;;7.07;;
15929;SDS011;8064;51.142;4.780;2023-04-08T03:51:03;8.33;;;6.00;;
15929;SDS011;8064;51.142;4.780;2023-04-08T03:53:29;13.17;;;6.93;;
15929;SDS011;8064;51.142;4.780;2023-04-08T03:55:55;14.53;;;7.73;;
15929;SDS011;8064;51.142;4.780;2023-04-08T03:58:22;16.80;;;7.53;;
15929;SDS011;8064;51.142;4.780;2023-04-08T04:00:47;13.90;;;7.67;;
15929;SDS011;8064;51.142;4.780;2023-04-08T04:03:13;14.43;;;7.63;;
15929;SDS011;8064;51.142;4.780;2023-04-08T04:05:39;12.90;;;6.93;;
15929;SDS011;8064;51.142;4.780;2023-04-08T04:08:05;11.03;;;7.23;;
15929;SDS011;8064;51.142;4.780;2023-04-08T04:10:31;14.60;;;8.33;;
15929;SDS011;8064;51.142;4.780;2023-04-08T04:12:57;11.47;;;7.43;;
15929;SDS011;8064;51.142;4.780;2023-04-08T04:15:22;16.23;;;9.00;;
15929;SDS011;8064;51.142;4.780;2023-04-08T04:17:49;16.63;;;8.80;;
15929;SDS011;8064;51.142;4.780;2023-04-08T04:20:16;20.17;;;8.40;;
15929;SDS011;8064;51.142;4.780;2023-04-08T04:22:42;17.77;;;8.20;;
15929;SDS011;8064;51.142;4.780;2023-04-08T04:25:08;15.30;;;8.60;;
15929;SDS011;8064;51.142;4.780;2023-04-08T04:27:34;18.57;;;9.07;;
15929;SDS011;8064;51.142;4.780;2023-04-08T04:30:01;18.67;;;9.73;;
15929;SDS011;8064;51.142;4.780;2023-04-08T04:32:27;18.37;;;8.67;;
15929;SDS011;8064;51.142;4.780;2023-04-08T04:34:53;19.53;;;9.50;;
15929;SDS011;8064;51.142;4.780;2023-04-08T04:37:18;16.60;;;10.17;;
15929;SDS011;8064;51.142;4.780;2023-04-08T04:39:44;21.73;;;10.43;;
15929;SDS011;8064;51.142;4.780;2023-04-08T04:42:10;18.93;;;9.80;;
15929;SDS011;8064;51.142;4.780;2023-04-08T04:44:36;17.77;;;10.30;;
15929;SDS011;8064;51.142;4.780;2023-04-08T04:47:02;19.00;;;11.10;;
15929;SDS011;8064;51.142;4.780;2023-04-08T04:49:27;22.70;;;10.70;;
15929;SDS011;8064;51.142;4.780;2023-04-08T04:51:53;19.93;;;10.43;;
15929;SDS011;8064;51.142;4.780;2023-04-08T04:54:19;21.80;;;10.83;;
15929;SDS011;8064;51.142;4.780;2023-04-08T04:56:45;22.73;;;10.43;;
15929;SDS011;8064;51.142;4.780;2023-04-08T04:59:11;16.63;;;9.77;;
15929;SDS011;8064;51.142;4.780;2023-04-08T05:01:37;14.23;;;9.33;;
15929;SDS011;8064;51.142;4.780;2023-04-08T05:04:05;18.87;;;9.83;;
15929;SDS011;8064;51.142;4.780;2023-04-08T05:06:31;18.93;;;11.10;;
15929;SDS011;8064;51.142;4.780;2023-04-08T05:08:57;24.60;;;11.07;;
15929;SDS011;8064;51.142;4.780;2023-04-08T05:11:23;23.03;;;11.97;;
15929;SDS011;8064;51.142;4.780;2023-04-08T05:13:49;22.27;;;11.67;;
15929;SDS011;8064;51.142;4.780;2023-04-08T05:16:15;20.37;;;12.53;;
15929;SDS011;8064;51.142;4.780;2023-04-08T05:18:41;23.80;;;13.10;;
15929;SDS011;8064;51.142;4.780;2023-04-08T05:21:07;23.47;;;13.07;;
15929;SDS011;8064;51.142;4.780;2023-04-08T05:23:33;23.73;;;13.73;;
15929;SDS011;8064;51.142;4.780;2023-04-08T05:25:59;24.47;;;13.37;;
15929;SDS011;8064;51.142;4.780;2023-04-08T05:28:25;26.50;;;14.50;;
15929;SDS011;8064;51.142;4.780;2023-04-08T05:30:51;26.13;;;14.00;;
15929;SDS011;8064;51.142;4.780;2023-04-08T05:33:18;28.50;;;14.10;;
15929;SDS011;8064;51.142;4.780;2023-04-08T05:35:44;22.50;;;13.73;;
15929;SDS011;8064;51.142;4.780;2023-04-08T05:38:10;19.03;;;13.00;;
15929;SDS011;8064;51.142;4.780;2023-04-08T05:40:36;24.17;;;13.27;;
15929;SDS011;8064;51.142;4.780;2023-04-08T05:43:02;22.10;;;13.47;;
15929;SDS011;8064;51.142;4.780;2023-04-08T05:45:28;22.13;;;13.83;;
15929;SDS011;8064;51.142;4.780;2023-04-08T05:47:55;24.30;;;14.07;;
15929;SDS011;8064;51.142;4.780;2023-04-08T05:50:20;24.40;;;13.63;;
15929;SDS011;8064;51.142;4.780;2023-04-08T05:52:46;23.70;;;14.70;;
15929;SDS011;8064;51.142;4.780;2023-04-08T05:55:12;24.03;;;15.17;;
15929;SDS011;8064;51.142;4.780;2023-04-08T05:57:38;25.23;;;14.50;;
15929;SDS011;8064;51.142;4.780;2023-04-08T06:00:05;26.57;;;15.57;;
15929;SDS011;8064;51.142;4.780;2023-04-08T06:02:33;23.67;;;14.53;;
15929;SDS011;8064;51.142;4.780;2023-04-08T06:04:59;27.97;;;15.67;;
15929;SDS011;8064;51.142;4.780;2023-04-08T06:07:25;22.33;;;14.67;;
15929;SDS011;8064;51.142;4.780;2023-04-08T06:09:51;26.97;;;15.33;;
15929;SDS011;8064;51.142;4.780;2023-04-08T06:12:16;31.90;;;15.40;;
15929;SDS011;8064;51.142;4.780;2023-04-08T06:14:42;26.40;;;15.53;;
15929;SDS011;8064;51.142;4.780;2023-04-08T06:17:08;27.73;;;16.07;;
15929;SDS011;8064;51.142;4.780;2023-04-08T06:19:34;28.20;;;15.40;;
15929;SDS011;8064;51.142;4.780;2023-04-08T06:22:00;27.20;;;15.73;;
15929;SDS011;8064;51.142;4.780;2023-04-08T06:24:26;26.57;;;15.70;;
15929;SDS011;8064;51.142;4.780;2023-04-08T06:26:53;26.10;;;16.20;;
15929;SDS011;8064;51.142;4.780;2023-04-08T06:29:20;28.97;;;16.60;;
15929;SDS011;8064;51.142;4.780;2023-04-08T06:31:47;29.87;;;16.43;;
15929;SDS011;8064;51.142;4.780;2023-04-08T06:34:13;32.27;;;17.07;;
15929;SDS011;8064;51.142;4.780;2023-04-08T06:36:39;24.60;;;15.10;;
15929;SDS011;8064;51.142;4.780;2023-04-08T06:39:05;20.07;;;14.47;;
15929;SDS011;8064;51.142;4.780;2023-04-08T06:41:31;30.00;;;15.50;;
15929;SDS011;8064;51.142;4.780;2023-04-08T06:43:57;24.60;;;15.20;;
15929;SDS011;8064;51.142;4.780;2023-04-08T06:46:23;23.43;;;16.50;;
15929;SDS011;8064;51.142;4.780;2023-04-08T06:48:49;23.03;;;15.57;;
15929;SDS011;8064;51.142;4.780;2023-04-08T06:51:15;27.73;;;15.80;;
15929;SDS011;8064;51.142;4.780;2023-04-08T06:53:41;25.37;;;15.90;;
15929;SDS011;8064;51.142;4.780;2023-04-08T06:56:06;24.70;;;15.30;;
15929;SDS011;8064;51.142;4.780;2023-04-08T06:58:32;28.33;;;16.10;;
15929;SDS011;8064;51.142;4.780;2023-04-08T07:00:58;26.10;;;16.70;;
15929;SDS011;8064;51.142;4.780;2023-04-08T07:03:25;22.27;;;15.73;;
15929;SDS011;8064;51.142;4.780;2023-04-08T07:05:51;23.43;;;15.57;;
15929;SDS011;8064;51.142;4.780;2023-04-08T07:08:17;28.77;;;15.87;;
15929;SDS011;8064;51.142;4.780;2023-04-08T07:10:43;24.50;;;15.57;;
15929;SDS011;8064;51.142;4.780;2023-04-08T07:13:09;26.07;;;16.17;;
15929;SDS011;8064;51.142;4.780;2023-04-08T07:15:35;27.70;;;17.30;;
15929;SDS011;8064;51.142;4.780;2023-04-08T07:18:01;29.77;;;17.03;;
15929;SDS011;8064;51.142;4.780;2023-04-08T07:20:28;29.40;;;17.13;;
15929;SDS011;8064;51.142;4.780;2023-04-08T07:22:54;32.20;;;18.00;;
15929;SDS011;8064;51.142;4.780;2023-04-08T07:25:20;30.33;;;18.43;;
15929;SDS011;8064;51.142;4.780;2023-04-08T07:27:46;29.60;;;17.10;;
15929;SDS011;8064;51.142;4.780;2023-04-08T07:30:12;31.57;;;17.33;;
15929;SDS011;8064;51.142;4.780;2023-04-08T07:32:38;31.97;;;18.47;;
15929;SDS011;8064;51.142;4.780;2023-04-08T07:35:04;25.80;;;19.63;;
15929;SDS011;8064;51.142;4.780;2023-04-08T07:37:30;31.83;;;19.17;;
15929;SDS011;8064;51.142;4.780;2023-04-08T07:39:56;29.57;;;19.47;;
15929;SDS011;8064;51.142;4.780;2023-04-08T07:42:22;26.83;;;19.93;;
15929;SDS011;8064;51.142;4.780;2023-04-08T07:44:47;32.07;;;18.27;;
15929;SDS011;8064;51.142;4.780;2023-04-08T07:47:13;29.13;;;19.10;;
15929;SDS011;8064;51.142;4.780;2023-04-08T07:49:39;29.70;;;20.50;;
15929;SDS011;8064;51.142;4.780;2023-04-08T07:52:05;28.27;;;18.17;;
15929;SDS011;8064;51.142;4.780;2023-04-08T07:54:31;32.10;;;22.23;;
15929;SDS011;8064;51.142;4.780;2023-04-08T07:56:58;32.03;;;23.73;;
15929;SDS011;8064;51.142;4.780;2023-04-08T07:59:25;32.27;;;22.40;;
15929;SDS011;8064;51.142;4.780;2023-04-08T08:01:51;30.73;;;22.00;;
15929;SDS011;8064;51.142;4.780;2023-04-08T08:04:17;35.00;;;23.97;;
15929;SDS011;8064;51.142;4.780;2023-04-08T08:06:43;33.67;;;24.10;;
15929;SDS011;8064;51.142;4.780;2023-04-08T08:09:09;31.33;;;23.93;;
15929;SDS011;8064;51.142;4.780;2023-04-08T08:11:34;30.83;;;23.57;;
15929;SDS011;8064;51.142;4.780;2023-04-08T08:14:00;33.27;;;24.03;;
15929;SDS011;8064;51.142;4.780;2023-04-08T08:16:27;28.87;;;23.30;;
15929;SDS011;8064;51.142;4.780;2023-04-08T08:18:53;31.80;;;22.37;;
15929;SDS011;8064;51.142;4.780;2023-04-08T08:21:19;30.80;;;22.50;;
15929;SDS011;8064;51.142;4.780;2023-04-08T08:23:45;31.20;;;22.40;;
15929;SDS011;8064;51.142;4.780;2023-04-08T08:26:11;26.63;;;20.87;;
15929;SDS011;8064;51.142;4.780;2023-04-08T08:28:37;26.07;;;21.07;;
15929;SDS011;8064;51.142;4.780;2023-04-08T08:31:04;31.33;;;21.93;;
15929;SDS011;8064;51.142;4.780;2023-04-08T08:33:30;26.83;;;22.63;;
15929;SDS011;8064;51.142;4.780;2023-04-08T08:35:57;28.27;;;22.43;;
15929;SDS011;8064;51.142;4.780;2023-04-08T08:38:23;26.67;;;22.80;;
15929;SDS011;8064;51.142;4.780;2023-04-08T08:43:34;27.73;;;23.10;;
15929;SDS011;8064;51.142;4.780;2023-04-08T08:46:02;26.63;;;23.20;;
15929;SDS011;8064;51.142;4.780;2023-04-08T08:48:27;27.00;;;22.33;;
15929;SDS011;8064;51.142;4.780;2023-04-08T08:50:53;25.47;;;22.40;;
15929;SDS011;8064;51.142;4.780;2023-04-08T08:53:19;25.00;;;20.13;;
15929;SDS011;8064;51.142;4.780;2023-04-08T08:55:47;27.23;;;20.57;;
15929;SDS011;8064;51.142;4.780;2023-04-08T08:58:13;25.33;;;21.73;;
15929;SDS011;8064;51.142;4.780;2023-04-08T09:00:40;25.70;;;21.13;;
15929;SDS011;8064;51.142;4.780;2023-04-08T09:05:55;23.97;;;20.00;;
15929;SDS011;8064;51.142;4.780;2023-04-08T09:13:50;25.87;;;20.13;;
15929;SDS011;8064;51.142;4.780;2023-04-08T09:16:16;24.13;;;19.73;;
15929;SDS011;8064;51.142;4.780;2023-04-08T09:18:44;26.17;;;20.30;;
15929;SDS011;8064;51.142;4.780;2023-04-08T09:21:12;24.03;;;20.93;;
15929;SDS011;8064;51.142;4.780;2023-04-08T09:23:41;24.10;;;20.70;;
15929;SDS011;8064;51.142;4.780;2023-04-08T09:26:25;22.50;;;18.87;;
15929;SDS011;8064;51.142;4.780;2023-04-08T09:29:05;23.80;;;19.57;;
15929;SDS011;8064;51.142;4.780;2023-04-08T09:31:33;28.13;;;22.07;;
15929;SDS011;8064;51.142;4.780;2023-04-08T09:34:10;27.13;;;22.70;;
15929;SDS011;8064;51.142;4.780;2023-04-08T09:36:37;25.40;;;22.57;;
15929;SDS011;8064;51.142;4.780;2023-04-08T09:39:04;27.23;;;24.20;;
15929;SDS011;8064;51.142;4.780;2023-04-08T09:41:32;28.27;;;25.37;;
15929;SDS011;8064;51.142;4.780;2023-04-08T09:43:59;27.37;;;24.07;;
15929;SDS011;8064;51.142;4.780;2023-04-08T09:51:47;26.83;;;23.30;;
15929;SDS011;8064;51.142;4.780;2023-04-08T09:54:21;26.27;;;23.57;;
15929;SDS011;8064;51.142;4.780;2023-04-08T09:56:53;24.67;;;21.97;;
15929;SDS011;8064;51.142;4.780;2023-04-08T09:59:27;24.00;;;21.33;;
15929;SDS011;8064;51.142;4.780;2023-04-08T10:01:59;23.10;;;20.23;;
15929;SDS011;8064;51.142;4.780;2023-04-08T10:04:29;22.47;;;20.23;;
15929;SDS011;8064;51.142;4.780;2023-04-08T10:07:03;21.33;;;19.17;;
15929;SDS011;8064;51.142;4.780;2023-04-08T10:09:31;23.10;;;20.60;;
15929;SDS011;8064;51.142;4.780;2023-04-08T10:11:58;23.17;;;20.63;;
15929;SDS011;8064;51.142;4.780;2023-04-08T10:14:25;22.33;;;20.03;;
15929;SDS011;8064;51.142;4.780;2023-04-08T10:20:01;21.60;;;19.50;;
15929;SDS011;8064;51.142;4.780;2023-04-08T10:27:55;20.93;;;19.03;;
15929;SDS011;8064;51.142;4.780;2023-04-08T10:32:59;23.60;;;21.20;;
15929;SDS011;8064;51.142;4.780;2023-04-08T10:38:12;25.00;;;22.63;;
15929;SDS011;8064;51.142;4.780;2023-04-08T10:40:39;26.93;;;24.30;;
15929;SDS011;8064;51.142;4.780;2023-04-08T10:43:06;26.03;;;23.40;;
15929;SDS011;8064;51.142;4.780;2023-04-08T10:45:33;24.37;;;21.97;;
15929;SDS011;8064;51.142;4.780;2023-04-08T10:48:11;25.97;;;23.43;;
15929;SDS011;8064;51.142;4.780;2023-04-08T10:50:37;24.20;;;21.87;;
15929;SDS011;8064;51.142;4.780;2023-04-08T10:53:04;24.50;;;22.07;;
15929;SDS011;8064;51.142;4.780;2023-04-08T10:55:31;23.57;;;21.47;;
15929;SDS011;8064;51.142;4.780;2023-04-08T11:00:42;22.97;;;20.70;;
15929;SDS011;8064;51.142;4.780;2023-04-08T11:03:09;22.10;;;19.90;;
15929;SDS011;8064;51.142;4.780;2023-04-08T11:05:36;22.73;;;20.33;;
15929;SDS011;8064;51.142;4.780;2023-04-08T11:08:03;22.90;;;20.60;;
15929;SDS011;8064;51.142;4.780;2023-04-08T11:10:30;23.57;;;21.27;;
15929;SDS011;8064;51.142;4.780;2023-04-08T11:13:00;23.00;;;20.77;;
15929;SDS011;8064;51.142;4.780;2023-04-08T11:15:28;23.70;;;21.50;;
15929;SDS011;8064;51.142;4.780;2023-04-08T11:17:55;23.77;;;21.57;;
15929;SDS011;8064;51.142;4.780;2023-04-08T11:20:21;23.80;;;21.50;;
15929;SDS011;8064;51.142;4.780;2023-04-08T11:22:47;24.03;;;21.67;;
15929;SDS011;8064;51.142;4.780;2023-04-08T11:25:14;23.33;;;21.17;;
15929;SDS011;8064;51.142;4.780;2023-04-08T11:27:40;24.57;;;22.20;;
15929;SDS011;8064;51.142;4.780;2023-04-08T11:30:06;22.70;;;20.53;;
15929;SDS011;8064;51.142;4.780;2023-04-08T11:32:33;21.53;;;19.53;;
15929;SDS011;8064;51.142;4.780;2023-04-08T11:35:00;22.67;;;20.50;;
15929;SDS011;8064;51.142;4.780;2023-04-08T11:37:41;21.30;;;19.30;;
15929;SDS011;8064;51.142;4.780;2023-04-08T11:40:08;20.80;;;18.90;;
15929;SDS011;8064;51.142;4.780;2023-04-08T11:42:35;22.17;;;20.08;;
15929;SDS011;8064;51.142;4.780;2023-04-08T11:45:08;22.30;;;20.30;;
15929;SDS011;8064;51.142;4.780;2023-04-08T11:47:36;21.07;;;19.17;;
15929;SDS011;8064;51.142;4.780;2023-04-08T11:50:02;19.25;;;17.50;;
15929;SDS011;8064;51.142;4.780;2023-04-08T11:52:39;18.63;;;16.93;;
15929;SDS011;8064;51.142;4.780;2023-04-08T11:55:25;18.83;;;17.05;;
15929;SDS011;8064;51.142;4.780;2023-04-08T11:57:54;18.57;;;16.67;;
15929;SDS011;8064;51.142;4.780;2023-04-08T12:00:21;18.10;;;16.37;;
15929;SDS011;8064;51.142;4.780;2023-04-08T12:02:48;18.05;;;16.55;;
15929;SDS011;8064;51.142;4.780;2023-04-08T12:05:16;19.27;;;17.48;;
15929;SDS011;8064;51.142;4.780;2023-04-08T12:07:42;18.73;;;17.02;;
15929;SDS011;8064;51.142;4.780;2023-04-08T12:10:08;17.77;;;16.17;;
15929;SDS011;8064;51.142;4.780;2023-04-08T12:12:35;16.90;;;15.30;;
15929;SDS011;8064;51.142;4.780;2023-04-08T12:15:02;17.27;;;15.67;;
15929;SDS011;8064;51.142;4.780;2023-04-08T12:17:28;18.93;;;17.23;;
15929;SDS011;8064;51.142;4.780;2023-04-08T12:19:53;18.52;;;16.75;;
15929;SDS011;8064;51.142;4.780;2023-04-08T12:22:19;18.97;;;17.27;;
15929;SDS011;8064;51.142;4.780;2023-04-08T12:24:45;19.23;;;17.60;;
15929;SDS011;8064;51.142;4.780;2023-04-08T12:27:11;19.03;;;17.33;;
15929;SDS011;8064;51.142;4.780;2023-04-08T12:29:37;18.93;;;17.13;;
15929;SDS011;8064;51.142;4.780;2023-04-08T12:32:03;19.03;;;17.13;;
15929;SDS011;8064;51.142;4.780;2023-04-08T12:34:29;20.97;;;18.97;;
15929;SDS011;8064;51.142;4.780;2023-04-08T12:36:55;18.87;;;17.10;;
15929;SDS011;8064;51.142;4.780;2023-04-08T12:39:22;19.53;;;17.83;;
15929;SDS011;8064;51.142;4.780;2023-04-08T12:41:48;19.27;;;17.40;;
15929;SDS011;8064;51.142;4.780;2023-04-08T12:44:14;18.93;;;17.13;;
15929;SDS011;8064;51.142;4.780;2023-04-08T12:46:40;19.17;;;17.47;;
15929;SDS011;8064;51.142;4.780;2023-04-08T12:49:05;19.83;;;18.00;;
15929;SDS011;8064;51.142;4.780;2023-04-08T12:51:31;19.23;;;17.50;;
15929;SDS011;8064;51.142;4.780;2023-04-08T12:53:57;20.00;;;18.00;;
15929;SDS011;8064;51.142;4.780;2023-04-08T12:56:24;20.40;;;18.50;;
15929;SDS011;8064;51.142;4.780;2023-04-08T12:58:50;20.20;;;18.30;;
15929;SDS011;8064;51.142;4.780;2023-04-08T13:01:15;18.80;;;17.03;;
15929;SDS011;8064;51.142;4.780;2023-04-08T13:03:41;20.23;;;18.33;;
15929;SDS011;8064;51.142;4.780;2023-04-08T13:06:07;19.30;;;17.37;;
15929;SDS011;8064;51.142;4.780;2023-04-08T13:08:33;19.23;;;17.43;;
15929;SDS011;8064;51.142;4.780;2023-04-08T13:10:59;18.97;;;17.20;;
15929;SDS011;8064;51.142;4.780;2023-04-08T13:13:24;18.67;;;16.97;;
15929;SDS011;8064;51.142;4.780;2023-04-08T13:15:50;18.73;;;17.03;;
15929;SDS011;8064;51.142;4.780;2023-04-08T13:18:16;18.97;;;17.17;;
15929;SDS011;8064;51.142;4.780;2023-04-08T13:20:42;18.57;;;16.73;;
15929;SDS011;8064;51.142;4.780;2023-04-08T13:23:08;18.97;;;17.17;;
15929;SDS011;8064;51.142;4.780;2023-04-08T13:25:34;18.90;;;17.13;;
15929;SDS011;8064;51.142;4.780;2023-04-08T13:28:00;18.30;;;16.47;;
15929;SDS011;8064;51.142;4.780;2023-04-08T13:30:25;17.57;;;15.97;;
15929;SDS011;8064;51.142;4.780;2023-04-08T13:32:51;16.90;;;15.50;;
15929;SDS011;8064;51.142;4.780;2023-04-08T13:35:17;15.53;;;14.23;;
15929;SDS011;8064;51.142;4.780;2023-04-08T13:37:42;16.60;;;15.03;;
15929;SDS011;8064;51.142;4.780;2023-04-08T13:40:08;15.90;;;14.30;;
15929;SDS011;8064;51.142;4.780;2023-04-08T13:42:34;16.30;;;15.00;;
15929;SDS011;8064;51.142;4.780;2023-04-08T13:45:01;15.37;;;14.03;;
15929;SDS011;8064;51.142;4.780;2023-04-08T13:47:27;15.43;;;14.13;;
15929;SDS011;8064;51.142;4.780;2023-04-08T13:49:53;16.23;;;14.83;;
15929;SDS011;8064;51.142;4.780;2023-04-08T13:52:18;15.50;;;14.13;;
15929;SDS011;8064;51.142;4.780;2023-04-08T13:54:44;14.17;;;13.07;;
15929;SDS011;8064;51.142;4.780;2023-04-08T13:57:11;14.27;;;13.17;;
15929;SDS011;8064;51.142;4.780;2023-04-08T13:59:37;14.17;;;13.07;;
15929;SDS011;8064;51.142;4.780;2023-04-08T14:02:03;14.10;;;13.00;;
15929;SDS011;8064;51.142;4.780;2023-04-08T14:04:29;13.87;;;12.77;;
15929;SDS011;8064;51.142;4.780;2023-04-08T14:06:54;14.03;;;12.93;;
15929;SDS011;8064;51.142;4.780;2023-04-08T14:09:22;13.73;;;12.63;;
15929;SDS011;8064;51.142;4.780;2023-04-08T14:11:48;13.97;;;12.67;;
15929;SDS011;8064;51.142;4.780;2023-04-08T14:14:14;13.43;;;12.33;;
15929;SDS011;8064;51.142;4.780;2023-04-08T14:16:40;13.43;;;12.13;;
15929;SDS011;8064;51.142;4.780;2023-04-08T14:19:06;14.27;;;12.97;;
15929;SDS011;8064;51.142;4.780;2023-04-08T14:21:32;12.80;;;11.70;;
15929;SDS011;8064;51.142;4.780;2023-04-08T14:23:58;12.50;;;11.43;;
15929;SDS011;8064;51.142;4.780;2023-04-08T14:26:24;13.53;;;12.37;;
15929;SDS011;8064;51.142;4.780;2023-04-08T14:28:50;12.47;;;11.47;;
15929;SDS011;8064;51.142;4.780;2023-04-08T14:31:16;12.27;;;11.00;;
15929;SDS011;8064;51.142;4.780;2023-04-08T14:33:41;13.50;;;12.30;;
15929;SDS011;8064;51.142;4.780;2023-04-08T14:36:08;14.00;;;12.80;;
15929;SDS011;8064;51.142;4.780;2023-04-08T14:38:35;13.13;;;12.00;;
15929;SDS011;8064;51.142;4.780;2023-04-08T14:41:01;14.20;;;12.97;;
15929;SDS011;8064;51.142;4.780;2023-04-08T14:43:26;14.80;;;13.40;;
15929;SDS011;8064;51.142;4.780;2023-04-08T14:45:52;13.93;;;12.83;;
15929;SDS011;8064;51.142;4.780;2023-04-08T14:48:18;15.03;;;13.73;;
15929;SDS011;8064;51.142;4.780;2023-04-08T14:50:44;14.73;;;13.23;;
15929;SDS011;8064;51.142;4.780;2023-04-08T14:53:10;12.77;;;11.77;;
15929;SDS011;8064;51.142;4.780;2023-04-08T14:55:36;13.43;;;12.20;;
15929;SDS011;8064;51.142;4.780;2023-04-08T14:58:03;14.23;;;13.03;;
15929;SDS011;8064;51.142;4.780;2023-04-08T15:00:29;12.77;;;11.67;;
15929;SDS011;8064;51.142;4.780;2023-04-08T15:02:55;14.63;;;13.33;;
15929;SDS011;8064;51.142;4.780;2023-04-08T15:05:21;13.70;;;12.60;;
15929;SDS011;8064;51.142;4.780;2023-04-08T15:07:47;13.43;;;12.13;;
15929;SDS011;8064;51.142;4.780;2023-04-08T15:10:13;13.73;;;12.57;;
15929;SDS011;8064;51.142;4.780;2023-04-08T15:12:39;14.77;;;13.47;;